sensor_id;sensor_type;location;lat;lon;timestamp;temperature;humidity
42201;DHT22;27869;51.442;7.540;2022-08-03T00:01:01;18.60;99.90
42201;DHT22;27869;51.442;7.540;2022-08-03T00:03:28;18.50;99.90
42201;DHT22;27869;51.442;7.540;2022-08-03T00:05:55;18.50;99.90
42201;DHT22;27869;51.442;7.540;2022-08-03T00:08:23;18.50;99.90
42201;DHT22;27869;51.442;7.540;2022-08-03T00:10:50;18.50;99.90
42201;DHT22;27869;51.442;7.540;2022-08-03T00:13:17;18.50;99.90
42201;DHT22;27869;51.442;7.540;2022-08-03T00:15:44;18.40;99.90
42201;DHT22;27869;51.442;7.540;2022-08-03T00:18:11;18.40;99.90
42201;DHT22;27869;51.442;7.540;2022-08-03T00:20:38;18.40;99.90
42201;DHT22;27869;51.442;7.540;2022-08-03T00:23:05;18.40;99.90
42201;DHT22;27869;51.442;7.540;2022-08-03T00:25:34;18.30;99.90
42201;DHT22;27869;51.442;7.540;2022-08-03T00:28:01;18.30;99.90
42201;DHT22;27869;51.442;7.540;2022-08-03T00:30:28;18.20;99.90
42201;DHT22;27869;51.442;7.540;2022-08-03T00:32:56;18.20;99.90
42201;DHT22;27869;51.442;7.540;2022-08-03T00:35:23;18.20;99.90
42201;DHT22;27869;51.442;7.540;2022-08-03T00:37:50;18.20;99.90
42201;DHT22;27869;51.442;7.540;2022-08-03T00:40:18;18.20;99.90
42201;DHT22;27869;51.442;7.540;2022-08-03T00:42:49;18.20;99.90
42201;DHT22;27869;51.442;7.540;2022-08-03T00:45:18;18.10;99.90
42201;DHT22;27869;51.442;7.540;2022-08-03T00:47:45;18.10;99.90
42201;DHT22;27869;51.442;7.540;2022-08-03T00:50:13;18.00;99.90
42201;DHT22;27869;51.442;7.540;2022-08-03T00:52:40;18.00;99.90
42201;DHT22;27869;51.442;7.540;2022-08-03T00:55:08;18.00;99.90
42201;DHT22;27869;51.442;7.540;2022-08-03T00:57:36;18.00;99.90
42201;DHT22;27869;51.442;7.540;2022-08-03T01:00:08;17.90;99.90
42201;DHT22;27869;51.442;7.540;2022-08-03T01:02:36;17.90;99.90
42201;DHT22;27869;51.442;7.540;2022-08-03T01:05:03;17.90;99.90
42201;DHT22;27869;51.442;7.540;2022-08-03T01:07:40;17.80;99.90
42201;DHT22;27869;51.442;7.540;2022-08-03T01:10:13;17.80;99.90
42201;DHT22;27869;51.442;7.540;2022-08-03T01:12:47;17.80;99.90
42201;DHT22;27869;51.442;7.540;2022-08-03T01:15:26;17.80;99.90
42201;DHT22;27869;51.442;7.540;2022-08-03T01:18:03;17.80;99.90
42201;DHT22;27869;51.442;7.540;2022-08-03T01:20:33;17.80;99.90
42201;DHT22;27869;51.442;7.540;2022-08-03T01:23:26;17.70;99.90
42201;DHT22;27869;51.442;7.540;2022-08-03T01:26:22;17.70;99.90
42201;DHT22;27869;51.442;7.540;2022-08-03T01:29:05;17.60;99.90
42201;DHT22;27869;51.442;7.540;2022-08-03T01:31:39;17.60;99.90
42201;DHT22;27869;51.442;7.540;2022-08-03T01:34:11;17.60;99.90
42201;DHT22;27869;51.442;7.540;2022-08-03T01:36:43;17.60;99.90
42201;DHT22;27869;51.442;7.540;2022-08-03T01:39:15;17.50;99.90
42201;DHT22;27869;51.442;7.540;2022-08-03T01:41:47;17.50;99.90
42201;DHT22;27869;51.442;7.540;2022-08-03T01:44:16;17.50;99.90
42201;DHT22;27869;51.442;7.540;2022-08-03T01:46:45;17.50;99.90
42201;DHT22;27869;51.442;7.540;2022-08-03T01:49:14;17.50;99.90
42201;DHT22;27869;51.442;7.540;2022-08-03T01:51:43;17.40;99.90
42201;DHT22;27869;51.442;7.540;2022-08-03T01:54:11;17.40;99.90
42201;DHT22;27869;51.442;7.540;2022-08-03T01:56:39;17.40;99.90
42201;DHT22;27869;51.442;7.540;2022-08-03T01:59:09;17.40;99.90
42201;DHT22;27869;51.442;7.540;2022-08-03T02:01:37;17.40;99.90
42201;DHT22;27869;51.442;7.540;2022-08-03T02:04:07;17.40;99.90
42201;DHT22;27869;51.442;7.540;2022-08-03T02:06:36;17.40;99.90
42201;DHT22;27869;51.442;7.540;2022-08-03T02:09:05;17.30;99.90
42201;DHT22;27869;51.442;7.540;2022-08-03T02:11:33;17.30;99.90
42201;DHT22;27869;51.442;7.540;2022-08-03T02:14:04;17.30;99.90
42201;DHT22;27869;51.442;7.540;2022-08-03T02:16:32;17.30;99.90
42201;DHT22;27869;51.442;7.540;2022-08-03T02:19:01;17.30;99.90
42201;DHT22;27869;51.442;7.540;2022-08-03T02:21:32;17.20;99.90
42201;DHT22;27869;51.442;7.540;2022-08-03T02:24:01;17.20;99.90
42201;DHT22;27869;51.442;7.540;2022-08-03T02:26:30;17.20;99.90
42201;DHT22;27869;51.442;7.540;2022-08-03T02:29:02;17.20;99.90
42201;DHT22;27869;51.442;7.540;2022-08-03T02:31:32;17.20;99.90
42201;DHT22;27869;51.442;7.540;2022-08-03T02:34:02;17.10;99.90
42201;DHT22;27869;51.442;7.540;2022-08-03T02:36:35;17.10;99.90
42201;DHT22;27869;51.442;7.540;2022-08-03T02:39:04;17.10;99.90
42201;DHT22;27869;51.442;7.540;2022-08-03T02:41:34;17.10;99.90
42201;DHT22;27869;51.442;7.540;2022-08-03T02:44:07;17.10;99.90
42201;DHT22;27869;51.442;7.540;2022-08-03T02:46:37;17.10;99.90
42201;DHT22;27869;51.442;7.540;2022-08-03T02:49:05;17.00;99.90
42201;DHT22;27869;51.442;7.540;2022-08-03T02:51:35;17.00;99.90
42201;DHT22;27869;51.442;7.540;2022-08-03T02:54:05;17.00;99.90
42201;DHT22;27869;51.442;7.540;2022-08-03T02:56:33;17.00;99.90
42201;DHT22;27869;51.442;7.540;2022-08-03T02:59:01;17.00;99.90
42201;DHT22;27869;51.442;7.540;2022-08-03T03:01:29;16.90;99.90
42201;DHT22;27869;51.442;7.540;2022-08-03T03:03:57;16.90;99.90
42201;DHT22;27869;51.442;7.540;2022-08-03T03:06:26;16.90;99.90
42201;DHT22;27869;51.442;7.540;2022-08-03T03:08:55;16.90;99.90
42201;DHT22;27869;51.442;7.540;2022-08-03T03:11:24;16.90;99.90
42201;DHT22;27869;51.442;7.540;2022-08-03T03:13:52;16.80;99.90
42201;DHT22;27869;51.442;7.540;2022-08-03T03:16:20;16.80;99.90
42201;DHT22;27869;51.442;7.540;2022-08-03T03:18:48;16.80;99.90
42201;DHT22;27869;51.442;7.540;2022-08-03T03:21:18;16.80;99.90
42201;DHT22;27869;51.442;7.540;2022-08-03T03:23:46;16.80;99.90
42201;DHT22;27869;51.442;7.540;2022-08-03T03:26:17;16.80;99.90
42201;DHT22;27869;51.442;7.540;2022-08-03T03:28:44;16.80;99.90
42201;DHT22;27869;51.442;7.540;2022-08-03T03:31:12;16.70;99.90
42201;DHT22;27869;51.442;7.540;2022-08-03T03:33:39;16.70;99.90
42201;DHT22;27869;51.442;7.540;2022-08-03T03:36:06;16.70;99.90
42201;DHT22;27869;51.442;7.540;2022-08-03T03:38:34;16.70;99.90
42201;DHT22;27869;51.442;7.540;2022-08-03T03:41:01;16.70;99.90
42201;DHT22;27869;51.442;7.540;2022-08-03T03:43:30;16.70;99.90
42201;DHT22;27869;51.442;7.540;2022-08-03T03:45:57;16.70;99.90
42201;DHT22;27869;51.442;7.540;2022-08-03T03:48:25;16.70;99.90
42201;DHT22;27869;51.442;7.540;2022-08-03T03:50:52;16.70;99.90
42201;DHT22;27869;51.442;7.540;2022-08-03T03:53:19;16.70;99.90
42201;DHT22;27869;51.442;7.540;2022-08-03T03:55:46;16.60;99.90
42201;DHT22;27869;51.442;7.540;2022-08-03T03:58:13;16.60;99.90
42201;DHT22;27869;51.442;7.540;2022-08-03T04:00:41;16.60;99.90
42201;DHT22;27869;51.442;7.540;2022-08-03T04:03:09;16.60;99.90
42201;DHT22;27869;51.442;7.540;2022-08-03T04:05:36;16.60;99.90
42201;DHT22;27869;51.442;7.540;2022-08-03T04:08:21;16.60;99.90
42201;DHT22;27869;51.442;7.540;2022-08-03T04:11:10;16.50;99.90
42201;DHT22;27869;51.442;7.540;2022-08-03T04:13:42;16.50;99.90
42201;DHT22;27869;51.442;7.540;2022-08-03T04:16:13;16.50;99.90
42201;DHT22;27869;51.442;7.540;2022-08-03T04:18:43;16.50;99.90
42201;DHT22;27869;51.442;7.540;2022-08-03T04:21:14;16.50;99.90
42201;DHT22;27869;51.442;7.540;2022-08-03T04:23:45;16.50;99.90
42201;DHT22;27869;51.442;7.540;2022-08-03T04:26:16;16.40;99.90
42201;DHT22;27869;51.442;7.540;2022-08-03T04:28:48;16.40;99.90
42201;DHT22;27869;51.442;7.540;2022-08-03T04:31:19;16.40;99.90
42201;DHT22;27869;51.442;7.540;2022-08-03T04:33:48;16.40;99.90
42201;DHT22;27869;51.442;7.540;2022-08-03T04:36:20;16.40;99.90
42201;DHT22;27869;51.442;7.540;2022-08-03T04:38:59;16.40;99.90
42201;DHT22;27869;51.442;7.540;2022-08-03T04:41:27;16.50;99.90
42201;DHT22;27869;51.442;7.540;2022-08-03T04:43:56;16.40;99.90
42201;DHT22;27869;51.442;7.540;2022-08-03T04:46:26;16.40;99.90
42201;DHT22;27869;51.442;7.540;2022-08-03T04:48:56;16.50;99.90
42201;DHT22;27869;51.442;7.540;2022-08-03T04:51:24;16.50;99.90
42201;DHT22;27869;51.442;7.540;2022-08-03T04:53:51;16.50;99.90
42201;DHT22;27869;51.442;7.540;2022-08-03T04:56:18;16.50;99.90
42201;DHT22;27869;51.442;7.540;2022-08-03T04:58:45;16.50;99.90
42201;DHT22;27869;51.442;7.540;2022-08-03T05:01:12;16.60;99.90
42201;DHT22;27869;51.442;7.540;2022-08-03T05:03:40;16.60;99.90
42201;DHT22;27869;51.442;7.540;2022-08-03T05:06:07;16.70;99.90
42201;DHT22;27869;51.442;7.540;2022-08-03T05:08:34;16.70;99.90
42201;DHT22;27869;51.442;7.540;2022-08-03T05:11:01;16.70;99.90
42201;DHT22;27869;51.442;7.540;2022-08-03T05:13:28;16.70;99.90
42201;DHT22;27869;51.442;7.540;2022-08-03T05:15:56;16.80;99.90
42201;DHT22;27869;51.442;7.540;2022-08-03T05:18:23;16.80;99.90
42201;DHT22;27869;51.442;7.540;2022-08-03T05:20:51;16.90;99.90
42201;DHT22;27869;51.442;7.540;2022-08-03T05:23:18;16.90;99.90
42201;DHT22;27869;51.442;7.540;2022-08-03T05:25:45;17.00;99.90
42201;DHT22;27869;51.442;7.540;2022-08-03T05:28:12;17.00;99.90
42201;DHT22;27869;51.442;7.540;2022-08-03T05:30:39;17.00;99.90
42201;DHT22;27869;51.442;7.540;2022-08-03T05:33:06;17.10;99.90
42201;DHT22;27869;51.442;7.540;2022-08-03T05:35:33;17.20;99.90
42201;DHT22;27869;51.442;7.540;2022-08-03T05:38:02;17.20;99.90
42201;DHT22;27869;51.442;7.540;2022-08-03T05:40:29;17.30;99.90
42201;DHT22;27869;51.442;7.540;2022-08-03T05:42:56;17.30;99.90
42201;DHT22;27869;51.442;7.540;2022-08-03T05:45:23;17.40;99.90
42201;DHT22;27869;51.442;7.540;2022-08-03T05:47:50;17.40;99.90
42201;DHT22;27869;51.442;7.540;2022-08-03T05:50:18;17.50;99.90
42201;DHT22;27869;51.442;7.540;2022-08-03T05:52:45;17.60;99.90
42201;DHT22;27869;51.442;7.540;2022-08-03T05:55:14;17.70;99.90
42201;DHT22;27869;51.442;7.540;2022-08-03T05:57:41;17.70;99.90
42201;DHT22;27869;51.442;7.540;2022-08-03T06:00:09;17.90;99.90
42201;DHT22;27869;51.442;7.540;2022-08-03T06:02:37;18.00;99.90
42201;DHT22;27869;51.442;7.540;2022-08-03T06:05:05;18.00;99.90
42201;DHT22;27869;51.442;7.540;2022-08-03T06:07:33;18.10;99.90
42201;DHT22;27869;51.442;7.540;2022-08-03T06:10:00;18.30;99.90
42201;DHT22;27869;51.442;7.540;2022-08-03T06:12:29;18.40;99.90
42201;DHT22;27869;51.442;7.540;2022-08-03T06:14:56;18.50;99.90
42201;DHT22;27869;51.442;7.540;2022-08-03T06:17:23;18.60;99.90
42201;DHT22;27869;51.442;7.540;2022-08-03T06:19:51;18.70;99.90
42201;DHT22;27869;51.442;7.540;2022-08-03T06:22:18;18.80;99.90
42201;DHT22;27869;51.442;7.540;2022-08-03T06:24:45;18.90;99.90
42201;DHT22;27869;51.442;7.540;2022-08-03T06:27:12;19.00;99.90
42201;DHT22;27869;51.442;7.540;2022-08-03T06:29:40;19.10;99.90
42201;DHT22;27869;51.442;7.540;2022-08-03T06:32:07;19.20;99.90
42201;DHT22;27869;51.442;7.540;2022-08-03T06:34:34;19.40;99.90
42201;DHT22;27869;51.442;7.540;2022-08-03T06:37:01;19.50;99.90
42201;DHT22;27869;51.442;7.540;2022-08-03T06:39:28;19.70;99.90
42201;DHT22;27869;51.442;7.540;2022-08-03T06:41:55;19.80;99.90
42201;DHT22;27869;51.442;7.540;2022-08-03T06:44:22;19.90;99.90
42201;DHT22;27869;51.442;7.540;2022-08-03T06:46:50;20.10;99.90
42201;DHT22;27869;51.442;7.540;2022-08-03T06:49:17;20.20;99.90
42201;DHT22;27869;51.442;7.540;2022-08-03T06:51:44;20.30;99.90
42201;DHT22;27869;51.442;7.540;2022-08-03T06:54:11;20.40;99.90
42201;DHT22;27869;51.442;7.540;2022-08-03T06:56:38;20.60;99.90
42201;DHT22;27869;51.442;7.540;2022-08-03T06:59:05;20.80;99.90
42201;DHT22;27869;51.442;7.540;2022-08-03T07:01:32;20.90;99.90
42201;DHT22;27869;51.442;7.540;2022-08-03T07:04:00;21.10;99.90
42201;DHT22;27869;51.442;7.540;2022-08-03T07:06:27;21.30;99.90
42201;DHT22;27869;51.442;7.540;2022-08-03T07:08:54;21.40;99.90
42201;DHT22;27869;51.442;7.540;2022-08-03T07:11:21;21.60;99.90
42201;DHT22;27869;51.442;7.540;2022-08-03T07:13:48;21.80;99.90
42201;DHT22;27869;51.442;7.540;2022-08-03T07:16:14;22.00;99.90
42201;DHT22;27869;51.442;7.540;2022-08-03T07:18:41;22.20;99.90
42201;DHT22;27869;51.442;7.540;2022-08-03T07:21:10;22.40;99.90
42201;DHT22;27869;51.442;7.540;2022-08-03T07:23:37;22.60;99.90
42201;DHT22;27869;51.442;7.540;2022-08-03T07:26:04;22.80;99.90
42201;DHT22;27869;51.442;7.540;2022-08-03T07:28:31;23.00;99.90
42201;DHT22;27869;51.442;7.540;2022-08-03T07:30:58;23.20;99.90
42201;DHT22;27869;51.442;7.540;2022-08-03T07:33:25;23.40;99.90
42201;DHT22;27869;51.442;7.540;2022-08-03T07:35:52;23.60;99.90
42201;DHT22;27869;51.442;7.540;2022-08-03T07:38:20;23.80;99.90
42201;DHT22;27869;51.442;7.540;2022-08-03T07:40:47;24.00;99.90
42201;DHT22;27869;51.442;7.540;2022-08-03T07:43:14;24.30;99.90
42201;DHT22;27869;51.442;7.540;2022-08-03T07:45:42;24.50;99.90
42201;DHT22;27869;51.442;7.540;2022-08-03T07:48:09;24.70;99.90
42201;DHT22;27869;51.442;7.540;2022-08-03T07:50:36;24.90;99.90
42201;DHT22;27869;51.442;7.540;2022-08-03T07:53:03;25.10;99.90
42201;DHT22;27869;51.442;7.540;2022-08-03T07:55:31;25.40;99.90
42201;DHT22;27869;51.442;7.540;2022-08-03T07:58:02;25.60;99.90
42201;DHT22;27869;51.442;7.540;2022-08-03T08:00:30;25.80;99.90
42201;DHT22;27869;51.442;7.540;2022-08-03T08:02:58;26.00;99.90
42201;DHT22;27869;51.442;7.540;2022-08-03T08:05:25;26.20;99.90
42201;DHT22;27869;51.442;7.540;2022-08-03T08:07:52;26.40;99.90
42201;DHT22;27869;51.442;7.540;2022-08-03T08:10:19;26.60;99.90
42201;DHT22;27869;51.442;7.540;2022-08-03T08:12:47;26.70;99.90
42201;DHT22;27869;51.442;7.540;2022-08-03T08:15:15;26.90;99.90
42201;DHT22;27869;51.442;7.540;2022-08-03T08:17:43;27.10;99.90
42201;DHT22;27869;51.442;7.540;2022-08-03T08:20:13;27.30;99.90
42201;DHT22;27869;51.442;7.540;2022-08-03T08:22:41;27.50;99.90
42201;DHT22;27869;51.442;7.540;2022-08-03T08:25:08;27.70;99.90
42201;DHT22;27869;51.442;7.540;2022-08-03T08:27:41;27.90;99.90
42201;DHT22;27869;51.442;7.540;2022-08-03T08:30:11;28.00;99.90
42201;DHT22;27869;51.442;7.540;2022-08-03T08:32:38;28.10;99.90
42201;DHT22;27869;51.442;7.540;2022-08-03T08:35:06;28.30;99.90
42201;DHT22;27869;51.442;7.540;2022-08-03T08:37:33;28.40;99.90
42201;DHT22;27869;51.442;7.540;2022-08-03T08:40:01;28.60;99.90
42201;DHT22;27869;51.442;7.540;2022-08-03T08:42:30;28.80;99.90
42201;DHT22;27869;51.442;7.540;2022-08-03T08:44:57;28.90;99.90
42201;DHT22;27869;51.442;7.540;2022-08-03T08:47:30;29.10;99.90
42201;DHT22;27869;51.442;7.540;2022-08-03T08:49:58;29.20;99.90
42201;DHT22;27869;51.442;7.540;2022-08-03T08:52:26;29.20;99.90
42201;DHT22;27869;51.442;7.540;2022-08-03T08:55:00;29.20;98.60
42201;DHT22;27869;51.442;7.540;2022-08-03T08:57:30;29.30;99.90
42201;DHT22;27869;51.442;7.540;2022-08-03T09:00:00;29.50;99.90
42201;DHT22;27869;51.442;7.540;2022-08-03T09:02:29;29.60;99.90
42201;DHT22;27869;51.442;7.540;2022-08-03T09:04:57;29.70;99.40
42201;DHT22;27869;51.442;7.540;2022-08-03T09:07:24;29.70;98.60
42201;DHT22;27869;51.442;7.540;2022-08-03T09:09:51;29.70;98.30
42201;DHT22;27869;51.442;7.540;2022-08-03T09:12:18;29.80;97.50
42201;DHT22;27869;51.442;7.540;2022-08-03T09:14:45;29.90;97.90
42201;DHT22;27869;51.442;7.540;2022-08-03T09:17:12;30.00;97.10
42201;DHT22;27869;51.442;7.540;2022-08-03T09:19:40;30.20;96.40
42201;DHT22;27869;51.442;7.540;2022-08-03T09:22:09;30.40;95.80
42201;DHT22;27869;51.442;7.540;2022-08-03T09:24:38;30.50;95.40
42201;DHT22;27869;51.442;7.540;2022-08-03T09:27:09;30.70;94.90
42201;DHT22;27869;51.442;7.540;2022-08-03T09:29:37;30.70;93.40
42201;DHT22;27869;51.442;7.540;2022-08-03T09:32:04;30.80;94.00
42201;DHT22;27869;51.442;7.540;2022-08-03T09:34:31;30.90;93.40
42201;DHT22;27869;51.442;7.540;2022-08-03T09:37:00;31.00;93.30
42201;DHT22;27869;51.442;7.540;2022-08-03T09:39:27;31.00;92.10
42201;DHT22;27869;51.442;7.540;2022-08-03T09:42:07;31.00;92.40
42201;DHT22;27869;51.442;7.540;2022-08-03T09:44:34;31.10;90.70
42201;DHT22;27869;51.442;7.540;2022-08-03T09:47:03;31.10;92.10
42201;DHT22;27869;51.442;7.540;2022-08-03T09:49:30;31.10;91.00
42201;DHT22;27869;51.442;7.540;2022-08-03T09:52:10;31.20;91.40
42201;DHT22;27869;51.442;7.540;2022-08-03T09:54:37;31.30;88.80
42201;DHT22;27869;51.442;7.540;2022-08-03T09:57:04;31.40;90.30
42201;DHT22;27869;51.442;7.540;2022-08-03T09:59:32;31.40;90.20
42201;DHT22;27869;51.442;7.540;2022-08-03T10:01:59;31.40;86.70
42201;DHT22;27869;51.442;7.540;2022-08-03T10:04:27;31.50;88.10
42201;DHT22;27869;51.442;7.540;2022-08-03T10:07:03;31.70;89.30
42201;DHT22;27869;51.442;7.540;2022-08-03T10:09:31;31.80;87.50
42201;DHT22;27869;51.442;7.540;2022-08-03T10:12:07;31.90;87.60
42201;DHT22;27869;51.442;7.540;2022-08-03T10:14:36;32.00;83.50
42201;DHT22;27869;51.442;7.540;2022-08-03T10:17:04;32.10;85.70
42201;DHT22;27869;51.442;7.540;2022-08-03T10:19:32;32.20;86.20
42201;DHT22;27869;51.442;7.540;2022-08-03T10:22:03;32.30;84.20
42201;DHT22;27869;51.442;7.540;2022-08-03T10:24:34;32.30;81.40
42201;DHT22;27869;51.442;7.540;2022-08-03T10:27:03;32.50;83.60
42201;DHT22;27869;51.442;7.540;2022-08-03T10:29:36;32.50;82.70
42201;DHT22;27869;51.442;7.540;2022-08-03T10:32:09;32.60;81.30
42201;DHT22;27869;51.442;7.540;2022-08-03T10:34:41;32.70;77.60
42201;DHT22;27869;51.442;7.540;2022-08-03T10:37:11;32.70;77.00
42201;DHT22;27869;51.442;7.540;2022-08-03T10:39:43;32.60;76.80
42201;DHT22;27869;51.442;7.540;2022-08-03T10:42:20;32.60;73.50
42201;DHT22;27869;51.442;7.540;2022-08-03T10:44:50;32.70;76.10
42201;DHT22;27869;51.442;7.540;2022-08-03T10:47:18;32.80;75.90
42201;DHT22;27869;51.442;7.540;2022-08-03T10:49:47;32.80;76.60
42201;DHT22;27869;51.442;7.540;2022-08-03T10:52:16;33.00;75.40
42201;DHT22;27869;51.442;7.540;2022-08-03T10:54:44;33.10;74.30
42201;DHT22;27869;51.442;7.540;2022-08-03T10:57:49;33.20;74.00
42201;DHT22;27869;51.442;7.540;2022-08-03T11:00:19;33.20;66.00
42201;DHT22;27869;51.442;7.540;2022-08-03T11:05:44;33.20;68.10
42201;DHT22;27869;51.442;7.540;2022-08-03T11:08:28;33.30;72.40
42201;DHT22;27869;51.442;7.540;2022-08-03T11:10:59;33.30;67.60
42201;DHT22;27869;51.442;7.540;2022-08-03T11:13:27;33.30;70.70
42201;DHT22;27869;51.442;7.540;2022-08-03T11:15:58;33.30;71.50
42201;DHT22;27869;51.442;7.540;2022-08-03T11:18:25;33.30;70.30
42201;DHT22;27869;51.442;7.540;2022-08-03T11:20:53;33.20;69.40
42201;DHT22;27869;51.442;7.540;2022-08-03T11:23:40;33.10;68.40
42201;DHT22;27869;51.442;7.540;2022-08-03T11:26:15;33.20;68.60
42201;DHT22;27869;51.442;7.540;2022-08-03T11:28:43;33.10;67.10
42201;DHT22;27869;51.442;7.540;2022-08-03T11:31:45;33.00;68.90
42201;DHT22;27869;51.442;7.540;2022-08-03T11:34:14;33.10;67.50
42201;DHT22;27869;51.442;7.540;2022-08-03T11:39:52;33.30;66.90
42201;DHT22;27869;51.442;7.540;2022-08-03T11:42:41;33.40;69.50
42201;DHT22;27869;51.442;7.540;2022-08-03T11:45:12;33.30;66.60
42201;DHT22;27869;51.442;7.540;2022-08-03T11:47:40;33.20;65.50
42201;DHT22;27869;51.442;7.540;2022-08-03T11:50:09;33.10;66.30
42201;DHT22;27869;51.442;7.540;2022-08-03T11:52:38;33.10;66.70
42201;DHT22;27869;51.442;7.540;2022-08-03T11:55:15;33.10;67.30
42201;DHT22;27869;51.442;7.540;2022-08-03T11:57:43;33.20;67.50
42201;DHT22;27869;51.442;7.540;2022-08-03T12:00:26;33.30;68.00
42201;DHT22;27869;51.442;7.540;2022-08-03T12:02:57;33.20;65.20
42201;DHT22;27869;51.442;7.540;2022-08-03T12:05:35;33.30;65.40
42201;DHT22;27869;51.442;7.540;2022-08-03T12:08:02;33.20;63.40
42201;DHT22;27869;51.442;7.540;2022-08-03T12:10:31;33.20;65.80
42201;DHT22;27869;51.442;7.540;2022-08-03T12:12:59;33.00;64.80
42201;DHT22;27869;51.442;7.540;2022-08-03T12:15:27;33.00;67.10
42201;DHT22;27869;51.442;7.540;2022-08-03T12:17:55;33.00;67.00
42201;DHT22;27869;51.442;7.540;2022-08-03T12:20:25;33.00;68.30
42201;DHT22;27869;51.442;7.540;2022-08-03T12:22:52;32.90;66.30
42201;DHT22;27869;51.442;7.540;2022-08-03T12:25:21;32.90;66.40
42201;DHT22;27869;51.442;7.540;2022-08-03T12:27:49;32.70;65.90
42201;DHT22;27869;51.442;7.540;2022-08-03T12:30:17;32.60;66.00
42201;DHT22;27869;51.442;7.540;2022-08-03T12:32:45;32.50;65.70
42201;DHT22;27869;51.442;7.540;2022-08-03T12:35:21;32.40;66.20
42201;DHT22;27869;51.442;7.540;2022-08-03T12:37:49;32.40;66.70
42201;DHT22;27869;51.442;7.540;2022-08-03T12:40:24;32.40;66.80
42201;DHT22;27869;51.442;7.540;2022-08-03T12:42:53;32.40;65.20
42201;DHT22;27869;51.442;7.540;2022-08-03T12:45:22;32.40;65.40
42201;DHT22;27869;51.442;7.540;2022-08-03T12:47:53;32.30;66.10
42201;DHT22;27869;51.442;7.540;2022-08-03T12:50:27;32.30;65.40
42201;DHT22;27869;51.442;7.540;2022-08-03T12:52:54;32.30;66.40
42201;DHT22;27869;51.442;7.540;2022-08-03T12:55:23;32.20;66.40
42201;DHT22;27869;51.442;7.540;2022-08-03T12:57:59;32.10;66.50
42201;DHT22;27869;51.442;7.540;2022-08-03T13:00:26;32.00;67.10
42201;DHT22;27869;51.442;7.540;2022-08-03T13:02:57;31.90;66.60
42201;DHT22;27869;51.442;7.540;2022-08-03T13:05:24;31.90;66.10
42201;DHT22;27869;51.442;7.540;2022-08-03T13:07:52;32.00;67.20
42201;DHT22;27869;51.442;7.540;2022-08-03T13:10:27;31.90;66.40
42201;DHT22;27869;51.442;7.540;2022-08-03T13:12:54;31.90;65.40
42201;DHT22;27869;51.442;7.540;2022-08-03T13:15:25;31.80;66.20
42201;DHT22;27869;51.442;7.540;2022-08-03T13:17:54;31.80;67.10
42201;DHT22;27869;51.442;7.540;2022-08-03T13:20:21;31.70;68.00
42201;DHT22;27869;51.442;7.540;2022-08-03T13:22:48;31.70;68.20
42201;DHT22;27869;51.442;7.540;2022-08-03T13:25:16;31.60;67.40
42201;DHT22;27869;51.442;7.540;2022-08-03T13:27:43;31.60;67.10
42201;DHT22;27869;51.442;7.540;2022-08-03T13:30:10;31.60;67.30
42201;DHT22;27869;51.442;7.540;2022-08-03T13:32:39;31.60;67.10
42201;DHT22;27869;51.442;7.540;2022-08-03T13:35:07;31.50;67.50
42201;DHT22;27869;51.442;7.540;2022-08-03T13:37:35;31.50;68.50
42201;DHT22;27869;51.442;7.540;2022-08-03T13:40:03;31.50;68.70
42201;DHT22;27869;51.442;7.540;2022-08-03T13:42:32;31.40;69.00
42201;DHT22;27869;51.442;7.540;2022-08-03T13:45:00;31.40;68.70
42201;DHT22;27869;51.442;7.540;2022-08-03T13:47:27;31.40;67.70
42201;DHT22;27869;51.442;7.540;2022-08-03T13:49:56;31.40;68.60
42201;DHT22;27869;51.442;7.540;2022-08-03T13:52:23;31.40;69.80
42201;DHT22;27869;51.442;7.540;2022-08-03T13:54:49;31.40;69.80
42201;DHT22;27869;51.442;7.540;2022-08-03T13:57:16;31.40;69.60
42201;DHT22;27869;51.442;7.540;2022-08-03T13:59:44;31.40;69.20
42201;DHT22;27869;51.442;7.540;2022-08-03T14:02:10;31.40;69.00
42201;DHT22;27869;51.442;7.540;2022-08-03T14:04:37;31.40;69.00
42201;DHT22;27869;51.442;7.540;2022-08-03T14:07:06;31.30;69.10
42201;DHT22;27869;51.442;7.540;2022-08-03T14:09:32;31.20;68.20
42201;DHT22;27869;51.442;7.540;2022-08-03T14:11:59;31.30;67.90
42201;DHT22;27869;51.442;7.540;2022-08-03T14:14:26;31.20;68.70
42201;DHT22;27869;51.442;7.540;2022-08-03T14:16:53;31.20;69.00
42201;DHT22;27869;51.442;7.540;2022-08-03T14:19:20;31.20;69.50
42201;DHT22;27869;51.442;7.540;2022-08-03T14:21:47;31.20;69.60
42201;DHT22;27869;51.442;7.540;2022-08-03T14:24:15;31.20;69.70
42201;DHT22;27869;51.442;7.540;2022-08-03T14:26:42;31.20;72.40
42201;DHT22;27869;51.442;7.540;2022-08-03T14:29:09;31.20;70.30
42201;DHT22;27869;51.442;7.540;2022-08-03T14:31:36;31.20;70.20
42201;DHT22;27869;51.442;7.540;2022-08-03T14:34:03;31.20;69.70
42201;DHT22;27869;51.442;7.540;2022-08-03T14:36:30;31.20;69.00
42201;DHT22;27869;51.442;7.540;2022-08-03T14:38:57;31.20;70.50
42201;DHT22;27869;51.442;7.540;2022-08-03T14:41:25;31.20;69.30
42201;DHT22;27869;51.442;7.540;2022-08-03T14:43:53;31.30;69.50
42201;DHT22;27869;51.442;7.540;2022-08-03T14:46:21;31.30;69.10
42201;DHT22;27869;51.442;7.540;2022-08-03T14:48:48;31.30;69.10
42201;DHT22;27869;51.442;7.540;2022-08-03T14:51:15;31.20;68.80
42201;DHT22;27869;51.442;7.540;2022-08-03T14:53:42;31.20;69.00
42201;DHT22;27869;51.442;7.540;2022-08-03T14:56:09;31.10;68.50
42201;DHT22;27869;51.442;7.540;2022-08-03T14:58:37;31.10;68.60
42201;DHT22;27869;51.442;7.540;2022-08-03T15:01:04;31.00;70.40
42201;DHT22;27869;51.442;7.540;2022-08-03T15:03:31;31.00;69.30
42201;DHT22;27869;51.442;7.540;2022-08-03T15:05:58;30.90;70.20
42201;DHT22;27869;51.442;7.540;2022-08-03T15:08:25;30.90;72.40
42201;DHT22;27869;51.442;7.540;2022-08-03T15:10:53;30.90;70.80
42201;DHT22;27869;51.442;7.540;2022-08-03T15:13:20;30.90;70.10
42201;DHT22;27869;51.442;7.540;2022-08-03T15:15:48;30.90;69.60
42201;DHT22;27869;51.442;7.540;2022-08-03T15:18:16;30.90;69.60
42201;DHT22;27869;51.442;7.540;2022-08-03T15:20:44;30.80;70.40
42201;DHT22;27869;51.442;7.540;2022-08-03T15:23:14;30.80;70.10
42201;DHT22;27869;51.442;7.540;2022-08-03T15:25:41;30.90;72.60
42201;DHT22;27869;51.442;7.540;2022-08-03T15:28:08;30.90;72.30
42201;DHT22;27869;51.442;7.540;2022-08-03T15:30:35;30.90;71.30
42201;DHT22;27869;51.442;7.540;2022-08-03T15:33:04;31.00;70.60
42201;DHT22;27869;51.442;7.540;2022-08-03T15:35:31;31.00;70.20
42201;DHT22;27869;51.442;7.540;2022-08-03T15:37:58;31.10;69.90
42201;DHT22;27869;51.442;7.540;2022-08-03T15:40:25;31.20;70.00
42201;DHT22;27869;51.442;7.540;2022-08-03T15:42:52;31.20;69.90
42201;DHT22;27869;51.442;7.540;2022-08-03T15:45:19;31.20;69.40
42201;DHT22;27869;51.442;7.540;2022-08-03T15:47:46;31.30;69.60